Latest Coastal Weather Observations for Double Island Point

IDQ60701

Issued at 4:42 pm EST Thursday 30 May 2024 (issued every 10 minutes, with the page automatically refreshed every 10 minutes)

About coastal observations | Map of coastal stations | Coastal observations for QLD | Marine services | Other Formats
Station Details ID: 040068 Name: DOUBLE ISLAND POINT LIGHTHOUSE Lat: -25.93 Lon: 153.19 Height: 95.64 m
Data from the previous 72 hours. | See also: Recent months at Double Island Point
Date/Time
EST
Wind Sea
Height
m
Swell Vis
km
Cloud Weather Temp
°C
Press
MSL
hPa
Rain since
9am
mm
Dir  Spd
kts
Gust
kts
Height
m
Period
s
Dir
30/04:30pm ENE 15 19 - - - - - - - 22.1 1023.4 0.2
30/04:00pm ENE 15 18 - - - - - - - 22.3 1023.5 0.2
30/03:30pm E 15 18 - - - - - - - 22.4 1023.4 0.2
30/03:00pm E 14 17 - - - - - - - 22.4 1023.5 0.2
30/02:30pm E 15 17 - - - - - - - 22.7 1023.5 0.2
30/02:00pm E 14 16 - - - - - - - 23.1 1023.6 0.2
30/01:30pm E 14 17 - - - - - - - 22.8 1023.9 0.2
30/01:00pm ESE 12 15 - - - - - - - 22.7 1024.3 0.2
30/12:30pm ESE 14 17 - - - - - - - 22.7 1024.6 0.2
30/12:00pm ESE 14 15 - - - - - - Recent precip. 22.8 1025.1 0.2
30/11:30am ESE 14 16 - - - - - - - 23.0 1025.5 0.2
30/11:00am E 15 17 - - - - - - - 23.1 1026.0 0.0
30/10:30am E 17 19 - - - - - - - 22.9 1026.3 0.0
30/10:00am E 15 18 - - - - - - - 22.9 1026.6 0.0
30/09:30am E 17 19 - - - - - - - 22.2 1026.7 0.0
30/09:00am E 18 22 - - - - - - - 22.0 1026.6 3.2
30/08:30am E 17 23 - - - - - - - 21.4 1026.4 3.2
30/08:00am NE 9 15 - - - - - - - 20.2 1026.3 3.2
30/07:30am E 14 16 - - - - - - - 20.2 1025.9 3.2
30/07:00am ENE 12 17 - - - - - - - 18.9 1025.6 3.2
30/06:37am NE 18 28 - - - - - - - 18.5 1025.6 3.2
30/06:30am NE 18 27 - - - - - - - 18.6 1025.3 3.2
30/06:26am NE 17 27 - - - - - - - 18.4 1025.3 3.2
30/06:00am ENE 19 23 - - - - - - Recent precip. 18.8 1025.3 3.0
30/05:40am ESE 14 35 - - - - - - - 19.5 1025.1 2.4
30/05:30am ESE 13 14 - - - - - - - 19.4 1024.9 2.4
30/05:00am ESE 13 15 - - - - - - - 19.5 1024.7 2.4
30/04:30am SE 11 15 - - - - - - - 19.1 1024.5 2.4
30/04:00am SE 19 30 - - - - - - - 19.5 1024.2 2.2
30/03:56am SE 17 30 - - - - - - - 20.5 1024.1 2.0
30/03:30am ESE 15 17 - - - - - - - 20.1 1024.2 2.0
30/03:00am SE 18 21 - - - - - - - 20.4 1024.2 2.0
30/02:30am SE 15 20 - - - - - - - 20.1 1024.2 2.0
30/02:00am SE 19 22 - - - - - - - 20.0 1024.5 2.0
30/01:30am SE 17 22 - - - - - - - 20.7 1024.8 2.0
30/01:00am ESE 15 19 - - - - - - - 21.1 1025.1 2.0
30/12:30am ESE 14 16 - - - - - - - 21.1 1025.2 2.0
30/12:00am ESE 16 18 - - - - - - - 21.1 1025.5 2.0
 
Date/Time
EST
Wind Sea
Height
m
Swell Vis
km
Cloud Weather Temp
°C
Press
MSL
hPa
Rain since
9am
mm
Dir  Spd
kts
Gust
kts
Height
m
Period
s
Dir
29/11:30pm ESE 16 18 - - - - - - - 21.0 1025.7 2.0
29/11:00pm ESE 16 19 - - - - - - - 21.0 1025.9 2.0
29/10:30pm ESE 17 19 - - - - - - - 21.1 1026.0 2.0
29/10:00pm ESE 17 20 - - - - - - - 21.0 1026.1 2.0
29/09:30pm ESE 17 19 - - - - - - - 21.0 1026.2 2.0
29/09:00pm ESE 17 20 - - - - - - - 21.0 1026.0 2.0
29/08:30pm ESE 19 22 - - - - - - - 20.9 1026.1 2.0
29/08:00pm ESE 19 23 - - - - - - - 21.0 1026.1 2.0
29/07:30pm ESE 20 24 - - - - - - - 20.6 1026.0 2.0
29/07:00pm ESE 19 23 - - - - - - - 20.5 1025.9 2.0
29/06:30pm SSE 16 20 - - - - - - - 19.7 1025.8 2.0
29/06:00pm SE 18 24 - - - - - - Recent precip. 19.3 1025.5 2.0
29/05:30pm SE 23 29 - - - - - - - 17.9 1025.5 1.0
29/05:00pm ESE 23 28 - - - - - - - 20.4 1025.1 0.0
29/04:30pm E 22 27 - - - - - - - 20.2 1025.0 0.0
29/04:00pm E 21 25 - - - - - - - 19.6 1024.9 0.0
29/03:44pm ENE 19 26 - - - - - - - 20.0 1024.8 0.0
29/03:30pm ESE 17 21 - - - - - - - 21.5 1024.6 0.0
29/03:00pm SE 20 25 - - - - - - - 21.7 1024.4 0.0
29/02:30pm SE 20 24 - - - - - - - 21.8 1024.3 0.0
29/02:00pm SE 20 23 - - - - - - - 21.9 1024.3 0.0
29/01:30pm ESE 18 22 - - - - - - - 21.9 1024.4 0.0
29/01:00pm SE 17 21 - - - - - - - 22.4 1024.5 0.0
29/12:30pm SE 17 19 - - - - - - - 22.6 1025.0 0.0
29/12:00pm SE 17 21 - - - - - - - 22.5 1025.5 0.0
29/11:30am ESE 16 19 - - - - - - - 22.6 1026.0 0.0
29/11:00am ESE 17 20 - - - - - - - 22.7 1026.3 0.0
29/10:30am ESE 17 21 - - - - - - - 22.7 1026.5 0.0
29/10:00am ESE 19 21 - - - - - - - 22.6 1026.6 0.0
29/09:30am ESE 19 22 - - - - - - - 22.4 1026.7 0.0
29/09:00am ESE 20 25 - - - - - - - 22.2 1026.5 0.0
29/08:30am ESE 19 22 - - - - - - - 22.1 1026.3 0.0
29/08:00am ESE 19 22 - - - - - - - 21.9 1026.0 0.0
29/07:30am ESE 21 24 - - - - - - - 21.5 1025.8 0.0
29/07:00am ESE 20 23 - - - - - - - 21.2 1025.7 0.0
29/06:30am ESE 21 25 - - - - - - - 20.9 1025.1 0.0
29/06:00am ESE 22 25 - - - - - - - 21.1 1025.2 0.0
29/05:30am ESE 20 23 - - - - - - - 20.9 1025.0 0.0
29/05:00am ESE 22 27 - - - - - - - 20.9 1024.5 0.0
29/04:30am ESE 21 25 - - - - - - - 20.9 1024.4 0.0
29/04:00am ESE 22 25 - - - - - - - 20.8 1024.3 0.0
29/03:30am ESE 24 27 - - - - - - - 21.0 1024.4 0.0
29/03:00am ESE 23 26 - - - - - - - 20.9 1024.4 0.0
29/02:30am ESE 23 28 - - - - - - - 20.9 1024.4 0.0
29/02:00am ESE 21 27 - - - - - - - 20.9 1024.5 0.0
29/01:30am ESE 22 25 - - - - - - - 20.8 1024.6 0.0
29/01:00am ESE 22 26 - - - - - - - 20.8 1024.6 0.0
29/12:30am ESE 23 27 - - - - - - - 20.8 1024.7 0.0
29/12:00am ESE 25 28 - - - - - - - 20.9 1025.0 0.0
 
Date/Time
EST
Wind Sea
Height
m
Swell Vis
km
Cloud Weather Temp
°C
Press
MSL
hPa
Rain since
9am
mm
Dir  Spd
kts
Gust
kts
Height
m
Period
s
Dir
28/11:30pm ESE 25 29 - - - - - - - 20.9 1025.0 0.0
28/11:00pm ESE 24 28 - - - - - - - 21.0 1025.2 0.0
28/10:30pm ESE 23 26 - - - - - - - 21.1 1025.4 0.0
28/10:00pm ESE 22 26 - - - - - - - 21.1 1025.5 0.0
28/09:30pm ESE 23 25 - - - - - - - 21.2 1025.6 0.0
28/09:00pm ESE 23 26 - - - - - - - 21.3 1025.6 0.0
28/08:30pm ESE 23 26 - - - - - - - 21.3 1025.3 0.0
28/08:00pm SE 22 26 - - - - - - - 21.3 1025.1 0.0
28/07:30pm SE 21 25 - - - - - - - 21.1 1025.1 0.0
28/07:00pm SE 21 25 - - - - - - - 21.1 1024.8 0.0
28/06:30pm SE 21 25 - - - - - - - 21.0 1024.6 0.0
28/06:00pm SE 21 26 - - - - - - - 21.0 1024.5 0.0
28/05:30pm SE 21 26 - - - - - - - 21.1 1024.1 0.0
28/05:00pm SE 19 22 - - - - - - - 20.7 1024.0 0.0
28/04:30pm SSE 20 23 - - - - - - - 20.6 1023.9 0.0
28/04:00pm SE 18 22 - - - - - - - 21.1 1023.7 0.0
28/03:30pm SE 20 24 - - - - - - - 21.3 1023.5 0.0
28/03:00pm SSE 20 25 - - - - - - - 20.6 1023.3 0.0
28/02:30pm SE 21 24 - - - - - - - 21.8 1023.5 0.0
28/02:00pm SE 19 23 - - - - - - - 21.6 1023.5 0.0
28/01:30pm SE 20 23 - - - - - - - 21.6 1023.5 0.0
28/01:00pm SE 23 26 - - - - - - - 21.7 1023.3 0.0
28/12:43pm SE 19 23 - - - - - - - 21.1 1023.6 0.0
28/12:30pm S 17 23 - - - - - - - 20.9 1023.8 0.0
28/12:00pm S 22 26 - - - - - - - 19.8 1024.0 0.0
28/11:30am S 24 30 - - - - - - - 19.8 1023.8 0.0
28/11:10am SSE 19 26 - - - - - - - 20.8 1024.6 0.0
28/11:00am SE 20 23 - - - - - - - 22.0 1024.9 0.0
28/10:30am SE 20 24 - - - - - - - 22.1 1024.9 0.0
28/10:00am SSE 15 18 - - - - - - - 21.7 1025.1 0.0
28/09:30am SSE 17 20 - - - - - - - 20.7 1025.2 0.0
28/09:00am S 19 25 - - - - - - Recent precip. 20.1 1025.0 0.6
28/08:30am SSE 21 27 - - - - - - - 19.6 1024.6 0.4
28/08:00am SSE 19 22 - - - - - - - 20.7 1024.3 0.0
28/07:30am SSE 17 21 - - - - - - - 20.3 1024.0 0.0
28/07:00am SSE 18 21 - - - - - - - 20.0 1023.5 0.0
28/06:30am SSE 21 24 - - - - - - - 19.9 1023.3 0.0
28/06:00am SE 18 20 - - - - - - - 20.4 1023.1 0.0
28/05:30am SE 19 23 - - - - - - - 20.3 1022.8 0.0
28/05:26am SE 19 23 - - - - - - - 20.5 1022.8 0.0
28/05:00am SSE 18 20 - - - - - - - 20.1 1022.6 0.0
28/04:30am SSE 20 25 - - - - - - - 19.8 1022.2 0.0
28/04:00am S 19 24 - - - - - - - 19.6 1022.4 0.0
28/03:31am S 18 29 - - - - - - - 19.7 1022.4 0.0
28/03:30am SSE 18 27 - - - - - - - 20.0 1022.4 0.0
28/03:00am SE 15 17 - - - - - - - 20.6 1022.6 0.0
28/02:30am SE 15 17 - - - - - - - 20.6 1022.7 0.0
28/02:00am SE 15 17 - - - - - - - 20.5 1022.8 0.0
28/01:30am SE 15 17 - - - - - - - 20.6 1023.0 0.0
28/01:00am SE 13 16 - - - - - - - 20.4 1023.2 0.0
28/12:30am SE 15 16 - - - - - - - 20.7 1023.1 0.0
28/12:00am SE 15 17 - - - - - - - 20.5 1023.1 0.0
 
Date/Time
EST
Wind Sea
Height
m
Swell Vis
km
Cloud Weather Temp
°C
Press
MSL
hPa
Rain since
9am
mm
Dir  Spd
kts
Gust
kts
Height
m
Period
s
Dir
27/11:30pm SE 14 16 - - - - - - - 20.7 1023.3 0.0
27/11:00pm SE 14 17 - - - - - - - 20.6 1023.3 0.0
27/10:30pm SE 15 17 - - - - - - - 20.7 1023.4 0.0
27/10:00pm SE 13 16 - - - - - - - 20.6 1023.4 0.0
27/09:30pm SE 12 14 - - - - - - - 20.4 1023.5 0.0
27/09:00pm SE 13 16 - - - - - - - 20.4 1023.4 0.0
27/08:30pm SE 15 17 - - - - - - - 20.4 1023.3 0.0
27/08:00pm SE 15 17 - - - - - - - 20.4 1023.1 0.0
27/07:30pm SE 15 18 - - - - - - - 20.4 1022.9 0.0
27/07:00pm SE 13 17 - - - - - - - 20.3 1022.8 0.0
27/06:30pm SE 16 18 - - - - - - - 20.4 1022.5 0.0
27/06:00pm SE 16 19 - - - - - - - 20.3 1022.1 0.0
27/05:30pm SE 16 19 - - - - - - - 20.3 1021.9 0.0
27/05:00pm SE 16 19 - - - - - - - 20.2 1021.7 0.0

Other formats

Comma delimited format used in spreadsheet applications
http://www.bom.gov.au/fwo/IDQ60701/IDQ60701.94584.axf

JavaScript Object Notation format (JSON) in row-major order
http://www.bom.gov.au/fwo/IDQ60701/IDQ60701.94584.json

Data quality

Most of these data are generated automatically and are frequently updated. Quality checks on data are not normally performed. It is possible for incorrect values to appear. Refer to information at About Latest Weather Observations and please check the disclaimer before using these data.